Terminal Aerodrome Forecast
Issued by NWS

Home | Current Version | Previous Version | Text Only | Print | Product List | Glossary On
Versions: 1 2 3 4 5 6 7 8 9 10 11 12 13 14 15 16 17 18 19 20
000
FTUS44 KLZK 260500
TAFLIT
TAF
KLIT 260530Z 2606/2706 16006KT P6SM SCT080 BKN120
     FM261800 29012G22KT P6SM SCT250
     FM270100 29010KT P6SM SCT040 SCT250=

USA.gov is the U.S. government's official web portal to all federal, state and local government web resources and services.